Time;durP1;ratioP1;P1;durP2;ratioP2;P2;SDS_P1;SDS_P2;PMS_P1;PMS_P2;Temp;Humidity;BMP_temperature;BMP_pressure;BME280_temperature;BME280_humidity;BME280_pressure;Samples;Min_cycle;Max_cycle;Signal;HPM_P1;HPM_P2
2022/11/22 00:00:36;;;;;;;;;;;;;;;22.77;43.31;94579.69;6118434;19;2088;-61
2022/11/22 00:02:39;;;;;;;;;;;;;;;22.78;43.44;94578.63;6118838;19;1914;-62
2022/11/22 00:04:43;;;;;;;;;;;;;;;22.78;43.55;94575.97;6120228;19;1902;-62
2022/11/22 00:06:48;;;;;;;;;;;;;;;22.77;43.70;94579.69;6097708;19;1981;-59
2022/11/22 00:08:52;;;;;;;;;;;;;;;22.78;43.30;94581.31;6120673;19;1915;-61
2022/11/22 00:10:55;;;;;;;;;;;;;;;22.77;43.56;94574.34;6120348;19;2121;-61
2022/11/22 00:12:58;;;;;;;;;;;;;;;22.77;43.43;94571.66;6120405;19;1887;-60
2022/11/22 00:15:02;;;;;;;;;;;;;;;22.75;43.95;94571.88;6120720;19;1912;-60
2022/11/22 00:17:06;;;;;;;;;;;;;;;22.76;43.92;94572.69;6104714;19;2005;-62
2022/11/22 00:19:10;;;;;;;;;;;;;;;22.75;43.56;94571.06;6116012;19;2194;-61
2022/11/22 00:21:13;;;;;;;;;;;;;;;22.76;43.97;94567.34;6119434;19;2137;-62
2022/11/22 00:23:19;;;;;;;;;;;;;;;22.75;43.77;94577.25;6118266;19;1824;-59
2022/11/22 00:25:22;;;;;;;;;;;;;;;22.79;43.63;94578.41;6118320;19;2075;-60
2022/11/22 00:27:26;;;;;;;;;;;;;;;22.74;43.63;94588.22;6117619;19;1045;-58
2022/11/22 00:29:29;;;;;;;;;;;;;;;22.76;43.55;94583.41;6095441;19;2065;-60
2022/11/22 00:31:32;;;;;;;;;;;;;;;22.72;43.67;94580.41;6120706;19;1700;-60
2022/11/22 00:33:36;;;;;;;;;;;;;;;22.77;43.32;94582.38;6120078;19;1914;-60
2022/11/22 00:35:39;;;;;;;;;;;;;;;22.76;43.64;94578.88;6117563;19;2070;-60
2022/11/22 00:37:43;;;;;;;;;;;;;;;22.70;43.77;94577.13;6117580;19;1928;-57
2022/11/22 00:39:48;;;;;;;;;;;;;;;22.74;43.34;94580.19;6108528;19;1213;-58
2022/11/22 00:41:52;;;;;;;;;;;;;;;22.73;43.36;94586.56;6106763;19;1856;-60
2022/11/22 00:43:55;;;;;;;;;;;;;;;22.75;43.33;94579.09;6118848;19;1906;-59
2022/11/22 00:45:58;;;;;;;;;;;;;;;22.69;43.64;94588.06;6120316;19;2161;-61
2022/11/22 00:48:02;;;;;;;;;;;;;;;22.72;43.22;94580.41;6115530;19;2192;-58
2022/11/22 00:50:05;;;;;;;;;;;;;;;22.68;43.63;94581.06;6118657;19;2113;-62
2022/11/22 00:52:09;;;;;;;;;;;;;;;22.71;43.15;94586.00;6096231;19;1873;-60
2022/11/22 00:54:12;;;;;;;;;;;;;;;22.73;43.10;94583.88;6118110;19;2120;-58
2022/11/22 00:56:18;;;;;;;;;;;;;;;22.72;43.35;94582.25;6116061;19;1610;-58
2022/11/22 00:58:21;;;;;;;;;;;;;;;22.71;43.52;94586.81;6120159;19;2018;-59
2022/11/22 01:00:25;;;;;;;;;;;;;;;22.71;43.46;94583.31;6121112;19;1934;-61
2022/11/22 01:02:28;;;;;;;;;;;;;;;22.72;43.39;94583.06;6118414;19;2319;-63
2022/11/22 01:04:31;;;;;;;;;;;;;;;22.69;43.44;94574.66;6101592;19;2070;-60
2022/11/22 01:06:35;;;;;;;;;;;;;;;22.68;43.11;94578.38;6115771;19;1628;-60
2022/11/22 01:08:38;;;;;;;;;;;;;;;22.69;43.27;94572.81;6117838;19;1889;-60
2022/11/22 01:10:41;;;;;;;;;;;;;;;22.69;43.52;94578.16;6119702;19;2103;-61
2022/11/22 01:12:47;;;;;;;;;;;;;;;22.70;43.05;94573.63;6118249;19;2399;-60
2022/11/22 01:14:50;;;;;;;;;;;;;;;22.69;43.37;94575.47;6098599;19;2119;-62
2022/11/22 01:16:54;;;;;;;;;;;;;;;22.68;43.20;94575.69;6114382;19;1357;-61
2022/11/22 01:18:57;;;;;;;;;;;;;;;22.68;43.11;94584.56;6116433;19;2180;-61
2022/11/22 01:21:00;;;;;;;;;;;;;;;22.68;43.29;94576.53;6116217;19;1855;-59
2022/11/22 01:23:04;;;;;;;;;;;;;;;22.70;43.00;94576.28;6116610;19;965;-63
2022/11/22 01:25:08;;;;;;;;;;;;;;;22.66;43.47;94569.78;6116424;19;2094;-61
2022/11/22 01:27:11;;;;;;;;;;;;;;;22.66;43.21;94567.91;6094685;19;1297;-60
2022/11/22 01:29:17;;;;;;;;;;;;;;;22.66;42.87;94572.47;6117316;19;2074;-60
2022/11/22 01:31:20;;;;;;;;;;;;;;;22.68;42.82;94570.34;6116456;19;1812;-60
2022/11/22 01:33:23;;;;;;;;;;;;;;;22.67;42.87;94568.72;6118582;19;1864;-61
2022/11/22 01:35:27;;;;;;;;;;;;;;;22.66;42.87;94567.13;6120249;19;2054;-61
2022/11/22 01:37:30;;;;;;;;;;;;;;;22.66;42.85;94572.47;6109844;19;2739;-61
2022/11/22 01:39:33;;;;;;;;;;;;;;;22.67;43.06;94566.06;6106158;19;2183;-63
2022/11/22 01:41:36;;;;;;;;;;;;;;;22.66;42.89;94564.44;6114916;19;2093;-60
2022/11/22 01:43:40;;;;;;;;;;;;;;;22.67;43.08;94566.84;6112923;19;1863;-60
2022/11/22 01:45:50;;;;;;;;;;;;;;;22.67;42.94;94566.06;6116204;19;1806;-61
2022/11/22 01:47:54;;;;;;;;;;;;;;;22.66;42.82;94561.75;6113687;19;2076;-63
2022/11/22 01:50:01;;;;;;;;;;;;;;;22.68;43.15;94562.31;6095851;19;1959;-61
2022/11/22 01:52:05;;;;;;;;;;;;;;;22.67;43.22;94568.72;6118378;19;1933;-63
2022/11/22 01:54:10;;;;;;;;;;;;;;;22.62;43.28;94566.75;6118204;19;2085;-61
2022/11/22 01:56:16;;;;;;;;;;;;;;;22.64;42.77;94570.00;6118788;19;2083;-62
2022/11/22 01:58:21;;;;;;;;;;;;;;;22.64;42.96;94563.84;6115367;19;2089;-61
2022/11/22 02:00:25;;;;;;;;;;;;;;;22.66;43.27;94559.06;6108568;19;2079;-62
2022/11/22 02:02:30;;;;;;;;;;;;;;;22.64;43.01;94563.84;6104072;19;2355;-59
2022/11/22 02:04:34;;;;;;;;;;;;;;;22.66;43.08;94561.75;6115165;19;2042;-61
2022/11/22 02:06:40;;;;;;;;;;;;;;;22.63;43.07;94560.34;6115411;19;2122;-58
2022/11/22 02:08:46;;;;;;;;;;;;;;;22.65;43.01;94566.31;6115211;19;1694;-62
2022/11/22 02:10:52;;;;;;;;;;;;;;;22.65;43.09;94568.13;6121232;19;2586;-60
2022/11/22 02:12:57;;;;;;;;;;;;;;;22.66;43.02;94564.44;6101023;19;2055;-61
2022/11/22 02:15:01;;;;;;;;;;;;;;;22.62;43.02;94574.78;6120045;19;2242;-61
2022/11/22 02:17:04;;;;;;;;;;;;;;;22.63;42.97;94575.63;6122596;19;2232;-61
2022/11/22 02:19:15;;;;;;;;;;;;;;;22.65;42.76;94568.13;6119700;19;1769;-59
2022/11/22 02:21:18;;;;;;;;;;;;;;;22.61;43.07;94569.66;6122409;19;2052;-60
2022/11/22 02:23:25;;;;;;;;;;;;;;;22.64;42.68;94571.88;6110660;19;2079;-59
2022/11/22 02:25:31;;;;;;;;;;;;;;;22.64;43.35;94574.56;6112501;19;2195;-59
2022/11/22 02:27:37;;;;;;;;;;;;;;;22.64;43.37;94574.56;6118879;19;982;-60
2022/11/22 02:29:41;;;;;;;;;;;;;;;22.63;43.37;94572.94;6121871;19;1994;-59
2022/11/22 02:31:45;;;;;;;;;;;;;;;22.66;43.29;94572.47;6122760;19;2441;-59
2022/11/22 02:33:50;;;;;;;;;;;;;;;22.67;43.38;94566.84;6121223;19;2076;-61
2022/11/22 02:35:53;;;;;;;;;;;;;;;22.65;43.65;94565.47;6101914;19;2172;-63
2022/11/22 02:37:59;;;;;;;;;;;;;;;22.66;43.63;94561.75;6125565;19;1594;-61
2022/11/22 02:40:04;;;;;;;;;;;;;;;22.68;43.87;94565.84;6121619;19;1944;-60
2022/11/22 02:42:08;;;;;;;;;;;;;;;22.66;43.89;94567.91;6122079;19;1837;-62
2022/11/22 02:44:15;;;;;;;;;;;;;;;22.65;43.34;94562.78;6121893;19;2041;-59
2022/11/22 02:46:21;;;;;;;;;;;;;;;22.63;43.61;94571.06;6110618;19;2035;-62
2022/11/22 02:48:24;;;;;;;;;;;;;;;22.66;43.02;94557.22;6110313;19;2073;-60
2022/11/22 02:50:28;;;;;;;;;;;;;;;22.67;43.04;94547.31;6121556;19;1915;-59
2022/11/22 02:52:31;;;;;;;;;;;;;;;22.66;43.03;94545.69;6121868;19;2051;-62
2022/11/22 02:54:34;;;;;;;;;;;;;;;22.69;43.11;94539.84;6121830;19;2029;-62
2022/11/22 02:56:38;;;;;;;;;;;;;;;22.66;42.84;94540.34;6121077;19;1920;-59
2022/11/22 02:58:41;;;;;;;;;;;;;;;22.65;43.20;94538.69;6100480;19;2103;-61
2022/11/22 03:00:47;;;;;;;;;;;;;;;22.67;42.96;94539.28;6122644;19;1978;-65
2022/11/22 03:02:50;;;;;;;;;;;;;;;22.68;42.88;94543.56;6119750;19;2436;-65
2022/11/22 03:04:54;;;;;;;;;;;;;;;22.67;43.06;94552.66;6119084;19;2050;-66
2022/11/22 03:06:58;;;;;;;;;;;;;;;22.63;43.33;94551.53;6120588;19;1922;-67
2022/11/22 03:09:01;;;;;;;;;;;;;;;22.62;42.78;94552.53;6119377;19;2300;-67
2022/11/22 03:11:04;;;;;;;;;;;;;;;22.59;43.02;94553.81;6095162;19;2046;-66
2022/11/22 03:13:07;;;;;;;;;;;;;;;22.61;43.39;94550.94;6119830;19;1783;-61
2022/11/22 03:15:11;;;;;;;;;;;;;;;22.62;43.38;94547.19;6121108;19;1841;-67
2022/11/22 03:17:17;;;;;;;;;;;;;;;22.64;42.89;94545.09;6121171;19;1912;-66
2022/11/22 03:19:20;;;;;;;;;;;;;;;22.63;42.88;94543.47;6120680;19;1904;-67
2022/11/22 03:21:24;;;;;;;;;;;;;;;22.63;42.96;94546.16;6099673;19;2087;-65
2022/11/22 03:23:27;;;;;;;;;;;;;;;22.62;43.28;94550.69;6118526;19;2037;-65
2022/11/22 03:25:30;;;;;;;;;;;;;;;22.62;43.29;94545.31;6118496;19;2095;-67
2022/11/22 03:27:34;;;;;;;;;;;;;;;22.63;43.13;94548.84;6118801;19;1009;-66
2022/11/22 03:29:37;;;;;;;;;;;;;;;22.62;42.94;94550.69;6116967;19;1152;-65
2022/11/22 03:31:40;;;;;;;;;;;;;;;22.60;43.34;94543.97;6122580;19;1993;-67
2022/11/22 03:33:46;;;;;;;;;;;;;;;22.61;43.30;94542.91;6096975;19;2014;-65
2022/11/22 03:35:49;;;;;;;;;;;;;;;22.63;43.16;94544.28;6120626;19;2217;-66
2022/11/22 03:37:53;;;;;;;;;;;;;;;22.60;43.08;94542.09;6119119;19;1905;-67
2022/11/22 03:39:56;;;;;;;;;;;;;;;22.61;43.25;94532.19;6119330;19;2094;-67
2022/11/22 03:41:59;;;;;;;;;;;;;;;22.61;43.23;94538.34;6118382;19;2092;-65
2022/11/22 03:44:03;;;;;;;;;;;;;;;22.62;43.08;94545.31;6109088;19;1929;-66
2022/11/22 03:46:06;;;;;;;;;;;;;;;22.56;43.03;94549.78;6107068;19;2115;-68
2022/11/22 03:48:10;;;;;;;;;;;;;;;22.42;43.44;94547.56;6121793;19;1989;-66
2022/11/22 03:50:16;;;;;;;;;;;;;;;22.49;43.44;94541.06;6117120;19;2089;-67
2022/11/22 03:52:19;;;;;;;;;;;;;;;22.55;43.35;94545.47;6119723;19;1932;-68
2022/11/22 03:54:22;;;;;;;;;;;;;;;22.63;43.58;94546.16;6120038;19;1886;-65
2022/11/22 03:56:25;;;;;;;;;;;;;;;22.64;43.38;94543.22;6095532;19;2095;-67
2022/11/22 03:58:29;;;;;;;;;;;;;;;22.64;43.24;94558.50;6116072;19;2146;-66
2022/11/22 04:00:32;;;;;;;;;;;;;;;22.61;43.37;94553.59;6116764;19;1921;-65
2022/11/22 04:02:36;;;;;;;;;;;;;;;22.58;43.30;94560.25;6117408;19;1971;-65
2022/11/22 04:04:39;;;;;;;;;;;;;;;22.60;43.02;94563.50;6118002;19;1771;-66
2022/11/22 04:06:45;;;;;;;;;;;;;;;22.61;42.91;94569.66;6119632;19;2104;-66
2022/11/22 04:08:48;;;;;;;;;;;;;;;21.76;33.67;94563.69;6098933;19;2072;-66
2022/11/22 04:10:52;;;;;;;;;;;;;;;20.46;37.37;94572.97;6115127;19;1950;-64
2022/11/22 04:12:58;;;;;;;;;;;;;;;19.21;36.43;94572.91;6116693;19;2154;-65
2022/11/22 04:15:08;;;;;;;;;;;;;;;18.49;36.30;94578.25;6118467;19;1828;-65
2022/11/22 04:17:13;;;;;;;;;;;;;;;18.20;35.72;94576.91;6120389;19;1979;-66
2022/11/22 04:19:36;;;;;;;;;;;;;;;18.31;35.29;94578.91;6092592;19;1874;-65
2022/11/22 04:21:37;;;;;;;;;;;;;;;18.10;34.81;94580.00;6119307;19;1908;-63
2022/11/22 04:23:43;;;;;;;;;;;;;;;17.92;34.17;94582.44;6117622;19;2088;-63
2022/11/22 04:25:45;;;;;;;;;;;;;;;17.50;34.83;94579.16;6120221;19;1808;-65
2022/11/22 04:27:48;;;;;;;;;;;;;;;17.39;34.64;94582.41;6119597;19;1960;-63
2022/11/22 04:29:51;;;;;;;;;;;;;;;17.30;34.09;94591.56;6109034;19;2210;-63
2022/11/22 04:34:10;;;;;;;;;;;;;;;17.23;33.89;94585.44;6117589;19;2110;-63
2022/11/22 04:36:14;;;;;;;;;;;;;;;17.14;34.43;94593.56;6119557;19;2085;-65
2022/11/22 04:38:18;;;;;;;;;;;;;;;18.33;33.54;94590.19;6117930;19;1912;-67
2022/11/22 04:40:24;;;;;;;;;;;;;;;19.25;33.40;94589.25;6119430;19;1859;-67
2022/11/22 04:44:42;;;;;;;;;;;;;;;20.33;33.77;94594.41;6119762;19;2142;-64
2022/11/22 04:46:46;;;;;;;;;;;;;;;20.58;33.68;94599.75;6120289;19;1845;-67
2022/11/22 04:48:49;;;;;;;;;;;;;;;20.79;33.86;94599.28;6118064;19;1904;-65
2022/11/22 04:53:06;;;;;;;;;;;;;;;21.01;33.83;94609.53;6109844;19;2077;-66
2022/11/22 04:55:09;;;;;;;;;;;;;;;21.10;34.07;94615.38;6107013;19;1913;-65
2022/11/22 04:57:15;;;;;;;;;;;;;;;21.15;34.02;94605.66;6118733;19;1890;-65
2022/11/22 04:59:18;;;;;;;;;;;;;;;21.21;34.35;94615.47;6120163;19;2109;-64
2022/11/22 05:01:21;;;;;;;;;;;;;;;21.25;34.42;94623.81;6118386;19;1932;-66
2022/11/22 05:03:25;;;;;;;;;;;;;;;21.29;34.78;94626.88;6117695;19;1902;-67
2022/11/22 05:05:28;;;;;;;;;;;;;;;21.31;33.96;94627.47;6092998;19;1878;-66
2022/11/22 05:07:33;;;;;;;;;;;;;;;21.28;34.09;94627.91;6118813;19;1900;-66
2022/11/22 05:09:37;;;;;;;;;;;;;;;21.28;34.30;94619.91;6116500;19;2188;-67
2022/11/22 05:11:45;;;;;;;;;;;;;;;20.85;34.21;94610.94;6114047;19;1666;-69
2022/11/22 05:13:51;;;;;;;;;;;;;;;19.19;29.34;94606.91;6117719;19;1771;-66
2022/11/22 05:15:54;;;;;;;;;;;;;;;19.79;34.36;94606.56;6115031;19;2065;-65
2022/11/22 05:17:58;;;;;;;;;;;;;;;20.35;33.96;94605.69;6100743;19;1418;-66
2022/11/22 05:20:01;;;;;;;;;;;;;;;20.67;33.62;94589.59;6118754;19;2094;-66
2022/11/22 05:22:05;;;;;;;;;;;;;;;20.95;33.33;94610.41;6116072;19;1961;-66
2022/11/22 05:24:06;;;;;;;;;;;;;;;21.04;33.75;94621.63;6115915;19;2038;-65
2022/11/22 05:26:09;;;;;;;;;;;;;;;21.07;34.50;94616.63;6117155;19;1723;-67
2022/11/22 05:28:13;;;;;;;;;;;;;;;21.38;34.44;94620.19;6092374;19;2134;-65
2022/11/22 05:30:19;;;;;;;;;;;;;;;21.59;34.21;94621.53;6116386;19;1476;-66
2022/11/22 05:32:22;;;;;;;;;;;;;;;21.73;34.16;94614.13;6113315;19;1053;-68
2022/11/22 05:34:25;;;;;;;;;;;;;;;21.83;34.17;94617.91;6116841;19;1033;-68
2022/11/22 05:36:29;;;;;;;;;;;;;;;21.95;34.03;94609.91;6115229;19;1089;-69
2022/11/22 05:38:34;;;;;;;;;;;;;;;22.03;34.24;94612.25;6116720;19;962;-67
2022/11/22 05:40:37;;;;;;;;;;;;;;;22.07;34.19;94605.41;6092181;19;1695;-68
2022/11/22 05:42:40;;;;;;;;;;;;;;;22.13;34.39;94607.16;6115172;19;1851;-66
2022/11/22 05:44:44;;;;;;;;;;;;;;;22.19;34.51;94612.63;6114496;19;1117;-67
2022/11/22 05:46:50;;;;;;;;;;;;;;;22.26;34.60;94610.66;6115871;19;1398;-66
2022/11/22 05:48:53;;;;;;;;;;;;;;;22.30;34.15;94622.53;6115064;19;1358;-66
2022/11/22 05:50:57;;;;;;;;;;;;;;;22.32;34.44;94618.56;6105462;19;1271;-67
2022/11/22 05:53:02;;;;;;;;;;;;;;;22.36;34.35;94626.94;6104750;19;2212;-68
2022/11/22 05:55:06;;;;;;;;;;;;;;;22.37;34.27;94627.75;6115583;19;978;-67
2022/11/22 05:57:09;;;;;;;;;;;;;;;22.38;34.73;94629.41;6116170;19;1058;-67
2022/11/22 05:59:12;;;;;;;;;;;;;;;22.37;34.67;94630.44;6116755;19;1263;-66
2022/11/22 06:01:17;;;;;;;;;;;;;;;22.38;34.76;94626.72;6116102;19;1284;-67
2022/11/22 06:03:22;;;;;;;;;;;;;;;22.39;34.74;94628.34;6092605;19;1860;-67
2022/11/22 06:05:26;;;;;;;;;;;;;;;22.41;34.52;94629.75;6119228;19;2312;-66
2022/11/22 06:07:29;;;;;;;;;;;;;;;22.46;34.77;94627.19;6114585;19;1045;-67
2022/11/22 06:09:32;;;;;;;;;;;;;;;22.44;34.68;94629.28;6112689;19;1170;-66
2022/11/22 06:11:36;;;;;;;;;;;;;;;22.47;35.00;94636.84;6116759;19;1058;-67
2022/11/22 06:13:41;;;;;;;;;;;;;;;22.53;34.55;94640.44;6105186;19;1155;-67
2022/11/22 06:15:44;;;;;;;;;;;;;;;22.52;35.06;94634.28;6105686;19;1347;-67
2022/11/22 06:17:47;;;;;;;;;;;;;;;22.51;34.83;94627.31;6116378;19;997;-67
2022/11/22 06:19:53;;;;;;;;;;;;;;;22.50;34.80;94638.25;6115721;19;987;-67
2022/11/22 06:21:56;;;;;;;;;;;;;;;22.49;35.27;94641.97;6116795;19;1053;-67
2022/11/22 06:24:00;;;;;;;;;;;;;;;22.49;35.16;94637.44;6115314;19;1845;-67
2022/11/22 06:26:04;;;;;;;;;;;;;;;22.49;35.29;94636.63;6093124;19;1365;-67
2022/11/22 06:28:08;;;;;;;;;;;;;;;22.47;35.14;94644.88;6116521;19;1152;-67
2022/11/22 06:30:12;;;;;;;;;;;;;;;22.44;35.43;94631.94;6115157;19;1189;-68
2022/11/22 06:32:15;;;;;;;;;;;;;;;22.49;35.93;94637.44;6115494;19;1053;-67
2022/11/22 06:34:18;;;;;;;;;;;;;;;22.45;35.45;94636.28;6114943;19;1061;-68
2022/11/22 06:36:25;;;;;;;;;;;;;;;22.49;35.99;94628.59;6103837;19;1182;-66
2022/11/22 06:38:29;;;;;;;;;;;;;;;22.48;35.85;94635.81;6102598;19;1379;-67
2022/11/22 06:40:32;;;;;;;;;;;;;;;22.50;35.72;94638.25;6114041;19;1650;-66
2022/11/22 06:42:35;;;;;;;;;;;;;;;22.54;35.93;94645.59;6115419;19;1849;-66
2022/11/22 06:44:38;;;;;;;;;;;;;;;22.48;35.77;94625.09;6112696;19;1019;-67
2022/11/22 06:46:42;;;;;;;;;;;;;;;22.48;36.06;94630.47;6115065;19;1132;-66
2022/11/22 06:48:45;;;;;;;;;;;;;;;22.41;35.95;94643.13;6091427;19;1565;-66
2022/11/22 06:50:49;;;;;;;;;;;;;;;22.44;36.21;94648.00;6115728;19;1065;-65
2022/11/22 06:52:55;;;;;;;;;;;;;;;22.51;36.17;94651.41;6113392;19;1046;-65
2022/11/22 06:54:58;;;;;;;;;;;;;;;22.42;36.02;94650.09;6111986;19;1163;-66
2022/11/22 06:57:01;;;;;;;;;;;;;;;22.48;36.41;94646.53;6115650;19;1022;-66
2022/11/22 06:59:06;;;;;;;;;;;;;;;22.52;36.31;94647.66;6107114;19;1508;-67
2022/11/22 07:01:10;;;;;;;;;;;;;;;22.42;36.31;94647.41;6103666;19;1459;-66
2022/11/22 07:03:13;;;;;;;;;;;;;;;22.48;36.45;94656.38;6117232;19;1841;-66
2022/11/22 07:05:16;;;;;;;;;;;;;;;22.45;36.63;94641.63;6116719;19;1022;-67
2022/11/22 07:07:20;;;;;;;;;;;;;;;22.44;36.37;94655.25;6116618;19;1132;-66
2022/11/22 07:09:26;;;;;;;;;;;;;;;22.34;36.80;94651.28;6117249;19;1174;-66
2022/11/22 07:11:30;;;;;;;;;;;;;;;22.31;36.83;94648.25;6098030;19;1790;-66
2022/11/22 07:13:33;;;;;;;;;;;;;;;22.32;37.07;94655.22;6119076;19;1042;-67
2022/11/22 07:15:37;;;;;;;;;;;;;;;22.32;37.34;94661.41;6119216;19;1026;-68
2022/11/22 07:17:40;;;;;;;;;;;;;;;22.29;36.99;94645.81;6120725;19;1066;-67
2022/11/22 07:19:43;;;;;;;;;;;;;;;22.30;37.23;94638.59;6122017;19;1053;-66
2022/11/22 07:21:48;;;;;;;;;;;;;;;22.27;37.11;94642.53;6110660;19;1140;-66
2022/11/22 07:23:52;;;;;;;;;;;;;;;22.30;37.54;94643.94;6107521;19;2185;-66
2022/11/22 07:25:58;;;;;;;;;;;;;;;22.27;37.18;94639.03;6121685;19;1878;-67
2022/11/22 07:28:02;;;;;;;;;;;;;;;22.26;37.51;94642.78;6121653;19;1017;-66
2022/11/22 07:30:05;;;;;;;;;;;;;;;22.24;37.15;94632.28;6121762;19;1046;-66
2022/11/22 07:32:09;;;;;;;;;;;;;;;22.25;37.28;94635.78;6121099;19;1049;-66
2022/11/22 07:34:12;;;;;;;;;;;;;;;22.24;37.48;94628.81;6098069;19;1302;-67
2022/11/22 07:36:16;;;;;;;;;;;;;;;22.25;37.18;94633.09;6119388;19;1413;-66
2022/11/22 07:38:20;;;;;;;;;;;;;;;22.21;37.19;94639.97;6120770;19;1417;-67
2022/11/22 07:40:23;;;;;;;;;;;;;;;22.22;37.50;94622.84;6121006;19;1136;-66
2022/11/22 07:42:29;;;;;;;;;;;;;;;22.22;37.53;94617.50;6120484;19;1066;-67
2022/11/22 07:44:32;;;;;;;;;;;;;;;22.18;37.69;94606.47;6107212;19;1866;-67
2022/11/22 07:46:35;;;;;;;;;;;;;;;22.20;37.62;94615.09;6108349;19;1652;-67
2022/11/22 07:48:39;;;;;;;;;;;;;;;22.20;37.73;94612.41;6119844;19;2016;-67
2022/11/22 07:50:42;;;;;;;;;;;;;;;22.20;37.40;94611.59;6120097;19;2200;-68
2022/11/22 07:52:45;;;;;;;;;;;;;;;22.21;37.82;94603.31;6121348;19;2029;-67
2022/11/22 07:54:49;;;;;;;;;;;;;;;22.19;37.85;94609.94;6121729;19;1896;-68
2022/11/22 07:56:52;;;;;;;;;;;;;;;22.11;37.73;94619.16;6097652;19;2073;-67
2022/11/22 07:58:59;;;;;;;;;;;;;;;22.10;37.96;94612.16;6120651;19;1625;-67
2022/11/22 08:01:06;;;;;;;;;;;;;;;22.14;37.72;94629.38;6118430;19;1041;-67
2022/11/22 08:03:09;;;;;;;;;;;;;;;22.15;37.78;94631.00;6120848;19;1846;-66
2022/11/22 08:05:13;;;;;;;;;;;;;;;22.13;38.41;94628.53;6122665;19;2068;-67
2022/11/22 08:07:16;;;;;;;;;;;;;;;22.12;38.34;94631.47;6107476;19;2026;-67
2022/11/22 08:09:19;;;;;;;;;;;;;;;22.16;37.73;94631.81;6106971;19;1831;-67
2022/11/22 08:11:22;;;;;;;;;;;;;;;22.16;37.79;94624.59;6118827;19;1856;-67
2022/11/22 08:13:26;;;;;;;;;;;;;;;22.16;38.18;94626.47;6119628;19;2103;-67
2022/11/22 08:15:32;;;;;;;;;;;;;;;22.10;37.74;94629.00;6122833;19;1869;-67
2022/11/22 08:17:35;;;;;;;;;;;;;;;22.11;37.80;94622.63;6115419;19;2031;-67
2022/11/22 08:19:38;;;;;;;;;;;;;;;22.09;38.01;94616.69;6094929;19;2176;-67
2022/11/22 08:21:42;;;;;;;;;;;;;;;22.12;37.69;94620.78;6119271;19;1968;-66
2022/11/22 08:23:46;;;;;;;;;;;;;;;22.12;37.57;94618.09;6118599;19;2095;-67
2022/11/22 08:25:49;;;;;;;;;;;;;;;22.13;37.60;94627.75;6118724;19;1001;-67
2022/11/22 08:27:53;;;;;;;;;;;;;;;22.15;37.62;94624.84;6118240;19;1338;-67
2022/11/22 08:29:56;;;;;;;;;;;;;;;22.12;37.59;94624.25;6107249;19;1458;-68
2022/11/22 08:32:02;;;;;;;;;;;;;;;22.10;38.16;94617.50;6108735;19;1925;-67
2022/11/22 08:34:05;;;;;;;;;;;;;;;22.12;38.21;94610.06;6119392;19;1128;-68
2022/11/22 08:36:09;;;;;;;;;;;;;;;22.12;38.24;94604.72;6118073;19;1152;-67
2022/11/22 08:38:12;;;;;;;;;;;;;;;22.11;38.37;94597.75;6119427;19;1872;-67
2022/11/22 08:40:16;;;;;;;;;;;;;;;22.11;38.49;94589.72;6119659;19;1045;-66
2022/11/22 08:42:19;;;;;;;;;;;;;;;22.17;37.86;94590.63;6095502;19;1273;-65
2022/11/22 08:44:22;;;;;;;;;;;;;;;22.19;38.26;94584.00;6118558;19;1833;-67
2022/11/22 08:46:25;;;;;;;;;;;;;;;22.21;37.95;94575.75;6118507;19;927;-66
2022/11/22 08:48:32;;;;;;;;;;;;;;;22.22;38.01;94577.38;6119213;19;1066;-66
2022/11/22 08:50:35;;;;;;;;;;;;;;;22.23;37.98;94569.13;6117870;19;1054;-65
2022/11/22 08:52:39;;;;;;;;;;;;;;;22.22;38.07;94564.78;6106931;19;1472;-65
2022/11/22 08:54:42;;;;;;;;;;;;;;;22.21;37.96;94557.00;6107500;19;1224;-66
2022/11/22 08:56:45;;;;;;;;;;;;;;;22.19;38.18;94577.84;6118583;19;1136;-65
2022/11/22 08:58:48;;;;;;;;;;;;;;;22.15;38.56;94571.31;6118621;19;1033;-65
2022/11/22 09:00:52;;;;;;;;;;;;;;;22.19;38.48;94567.13;6118152;19;1156;-65
2022/11/22 09:02:55;;;;;;;;;;;;;;;22.12;38.47;94560.03;6117641;19;1301;-67
2022/11/22 09:05:01;;;;;;;;;;;;;;;22.09;38.16;94562.38;6094296;19;1841;-69
2022/11/22 09:07:04;;;;;;;;;;;;;;;22.12;38.28;94560.03;6116909;19;1070;-69
2022/11/22 09:09:08;;;;;;;;;;;;;;;22.13;38.12;94560.84;6118912;19;959;-68
2022/11/22 09:11:12;;;;;;;;;;;;;;;22.13;38.13;94553.63;6118017;19;1137;-68
2022/11/22 09:13:15;;;;;;;;;;;;;;;22.13;38.40;94550.94;6118403;19;1034;-67
2022/11/22 09:15:19;;;;;;;;;;;;;;;22.15;38.39;94565.97;6105584;19;1124;-69
2022/11/22 09:17:22;;;;;;;;;;;;;;;22.12;38.40;94552.00;6106789;19;1161;-69
2022/11/22 09:19:25;;;;;;;;;;;;;;;22.11;37.99;94539.69;6117668;19;1054;-69
2022/11/22 09:21:31;;;;;;;;;;;;;;;22.13;38.37;94532.22;6118377;19;1322;-68
2022/11/22 09:23:35;;;;;;;;;;;;;;;22.14;38.32;94543.75;6116608;19;1843;-67
2022/11/22 09:25:38;;;;;;;;;;;;;;;22.12;38.13;94537.81;6117324;19;1020;-68
2022/11/22 09:27:41;;;;;;;;;;;;;;;22.09;38.29;94536.41;6094223;19;1564;-68
2022/11/22 09:29:45;;;;;;;;;;;;;;;22.10;38.21;94543.38;6116843;19;1058;-68
2022/11/22 09:31:48;;;;;;;;;;;;;;;22.10;37.89;94550.59;6116184;19;998;-69
2022/11/22 09:33:52;;;;;;;;;;;;;;;22.12;38.16;94543.97;6116228;19;967;-68
2022/11/22 09:36:00;;;;;;;;;;;;;;;22.08;38.18;94529.47;6117227;19;1492;-67
2022/11/22 09:38:07;;;;;;;;;;;;;;;22.08;37.91;94529.47;6105287;19;1332;-68
2022/11/22 09:40:11;;;;;;;;;;;;;;;22.08;38.20;94531.28;6104604;19;1646;-69
2022/11/22 09:42:29;;;;;;;;;;;;;;;22.08;37.90;94536.63;6116125;19;972;-69
2022/11/22 09:44:38;;;;;;;;;;;;;;;22.13;38.17;94548.28;6115467;19;1842;-68
2022/11/22 09:46:47;;;;;;;;;;;;;;;22.20;37.55;94540.16;6117497;19;1548;-67
2022/11/22 09:48:57;;;;;;;;;;;;;;;22.24;37.48;94527.91;6117476;19;1009;-67
2022/11/22 09:51:04;;;;;;;;;;;;;;;22.28;37.40;94522.91;6100866;19;1641;-67
2022/11/22 09:53:13;;;;;;;;;;;;;;;22.33;36.95;94525.69;6116626;19;1048;-68
2022/11/22 09:55:22;;;;;;;;;;;;;;;22.37;37.12;94518.84;6116557;19;954;-69
2022/11/22 09:57:28;;;;;;;;;;;;;;;22.39;36.71;94516.72;6115993;19;886;-67
2022/11/22 09:59:34;;;;;;;;;;;;;;;22.35;36.55;94513.72;6114762;19;1049;-68
2022/11/22 10:01:39;;;;;;;;;;;;;;;22.38;36.83;94512.44;6093545;19;1657;-68
2022/11/22 10:03:46;;;;;;;;;;;;;;;22.44;36.95;94511.50;6115494;19;1837;-68
2022/11/22 10:05:51;;;;;;;;;;;;;;;22.39;36.50;94514.06;6114022;19;2064;-67
2022/11/22 10:07:59;;;;;;;;;;;;;;;22.42;36.86;94510.91;6117945;19;1976;-67
2022/11/22 10:10:07;;;;;;;;;;;;;;;22.42;36.86;94499.38;6114888;19;1050;-67
2022/11/22 10:12:14;;;;;;;;;;;;;;;22.46;36.99;94501.38;6105612;19;2247;-68
2022/11/22 10:14:24;;;;;;;;;;;;;;;22.46;37.00;94498.69;6103580;19;2250;-68
2022/11/22 10:16:31;;;;;;;;;;;;;;;22.47;36.82;94478.88;6116231;19;2118;-67
2022/11/22 10:18:39;;;;;;;;;;;;;;;22.49;37.38;94487.50;6116758;19;1374;-66
2022/11/22 10:20:43;;;;;;;;;;;;;;;22.53;37.29;94482.47;6115352;19;2120;-67
2022/11/22 10:22:47;;;;;;;;;;;;;;;22.51;37.12;94466.69;6116396;19;1956;-67
2022/11/22 10:24:50;;;;;;;;;;;;;;;22.50;37.33;94462.34;6092053;19;1934;-67
2022/11/22 10:26:59;;;;;;;;;;;;;;;22.50;37.33;94473.06;6114453;19;2038;-67
2022/11/22 10:29:08;;;;;;;;;;;;;;;22.54;37.38;94458.16;6114318;19;2054;-66
2022/11/22 10:31:14;;;;;;;;;;;;;;;22.54;37.42;94455.50;6121790;19;2047;-68
2022/11/22 10:33:20;;;;;;;;;;;;;;;22.50;37.57;94450.84;6119405;19;2537;-66
2022/11/22 10:35:30;;;;;;;;;;;;;;;22.53;37.14;94450.34;6097175;19;2177;-67
2022/11/22 10:37:39;;;;;;;;;;;;;;;22.48;37.20;94451.09;6123302;19;1864;-67
2022/11/22 10:39:49;;;;;;;;;;;;;;;22.51;37.46;94447.13;6120814;19;2526;-66
2022/11/22 10:42:06;;;;;;;;;;;;;;;22.48;37.63;94445.72;6123026;19;1922;-67
2022/11/22 10:44:18;;;;;;;;;;;;;;;22.47;37.60;94441.41;6123070;19;2080;-67
2022/11/22 10:46:26;;;;;;;;;;;;;;;22.47;37.61;94449.44;6108784;19;2163;-66
2022/11/22 10:48:35;;;;;;;;;;;;;;;22.47;37.61;94441.41;6110288;19;2025;-67
2022/11/22 10:50:47;;;;;;;;;;;;;;;22.47;37.58;94433.38;6121455;19;1909;-65
2022/11/22 10:52:56;;;;;;;;;;;;;;;22.44;37.32;94425.81;6123214;19;1957;-66
2022/11/22 10:55:04;;;;;;;;;;;;;;;22.42;37.65;94427.13;6123082;19;2081;-65
2022/11/22 10:57:17;;;;;;;;;;;;;;;22.42;37.32;94427.13;6118561;19;1955;-67
2022/11/22 10:59:32;;;;;;;;;;;;;;;22.42;37.33;94416.41;6104166;19;1875;-67
2022/11/22 11:01:40;;;;;;;;;;;;;;;22.37;37.90;94414.47;6121597;19;1950;-67
2022/11/22 11:03:45;;;;;;;;;;;;;;;22.38;37.79;94426.78;6121178;19;1828;-67